Time;durP1;ratioP1;P1;durP2;ratioP2;P2;SDS_P1;SDS_P2;PMS_P1;PMS_P2;Temp;Humidity;BMP_temperature;BMP_pressure;BME280_temperature;BME280_humidity;BME280_pressure;Samples;Min_cycle;Max_cycle;Signal;HPM_P1;HPM_P2
2024/02/10 00:01:07;;;;;;;8.50;4.50;;;;;;;;;;4901422;29;20544;-82
2024/02/10 00:04:14;;;;;;;10.53;4.77;;;;;;;;;;4900210;29;20214;-82
2024/02/10 00:07:20;;;;;;;7.27;4.60;;;;;;;;;;4899766;29;20189;-81
2024/02/10 00:15:24;;;;;;;12.47;4.30;;;;;;;;;;4972826;28;20211;-82
2024/02/10 00:18:31;;;;;;;11.13;4.43;;;;;;;;;;4926590;29;20221;-82
2024/02/10 00:21:36;;;;;;;8.63;4.40;;;;;;;;;;4942646;28;20186;-82
2024/02/10 00:24:40;;;;;;;11.43;4.37;;;;;;;;;;4897610;29;20213;-83
2024/02/10 00:27:46;;;;;;;7.33;4.60;;;;;;;;;;4908537;29;20221;-83
2024/02/10 00:30:50;;;;;;;18.23;4.83;;;;;;;;;;4886719;29;20186;-82
2024/02/10 00:33:56;;;;;;;15.43;4.97;;;;;;;;;;4909224;29;20194;-83
2024/02/10 00:37:00;;;;;;;9.27;4.47;;;;;;;;;;4897573;29;20182;-83
2024/02/10 00:40:05;;;;;;;9.07;4.57;;;;;;;;;;4900038;29;20185;-83
2024/02/10 00:43:12;;;;;;;10.70;4.73;;;;;;;;;;4888083;29;20186;-83
2024/02/10 00:46:16;;;;;;;7.67;4.73;;;;;;;;;;4888100;29;20181;-83
2024/02/10 00:49:24;;;;;;;9.47;4.27;;;;;;;;;;4887684;29;20217;-83
2024/02/10 00:52:29;;;;;;;9.20;4.17;;;;;;;;;;4955293;28;20186;-83
2024/02/10 00:55:34;;;;;;;7.00;4.03;;;;;;;;;;4909341;29;20631;-83
2024/02/10 00:58:43;;;;;;;9.17;4.40;;;;;;;;;;4886815;29;20251;-83
2024/02/10 01:01:47;;;;;;;15.00;4.80;;;;;;;;;;4887172;29;20178;-83
2024/02/10 01:04:53;;;;;;;11.67;4.60;;;;;;;;;;4898417;29;20213;-83
2024/02/10 01:07:59;;;;;;;7.90;3.97;;;;;;;;;;4887239;29;20225;-83
2024/02/10 01:11:04;;;;;;;10.23;4.63;;;;;;;;;;4898028;29;20194;-82
2024/02/10 01:14:15;;;;;;;10.80;4.33;;;;;;;;;;4899535;29;20182;-83
2024/02/10 01:17:19;;;;;;;9.83;5.17;;;;;;;;;;4899276;29;20186;-83
2024/02/10 01:20:23;;;;;;;7.60;4.50;;;;;;;;;;4899045;29;20224;-83
2024/02/10 01:23:28;;;;;;;9.57;4.77;;;;;;;;;;4899110;29;20185;-82
2024/02/10 01:26:35;;;;;;;9.27;5.60;;;;;;;;;;4909358;29;20177;-83
2024/02/10 01:29:39;;;;;;;12.97;4.70;;;;;;;;;;4942875;28;20575;-83
2024/02/10 01:32:43;;;;;;;11.93;5.60;;;;;;;;;;4953505;28;20185;-84
2024/02/10 01:35:47;;;;;;;12.97;5.00;;;;;;;;;;4897708;29;20189;-84
2024/02/10 01:38:51;;;;;;;12.43;4.47;;;;;;;;;;4896796;29;20297;-84
2024/02/10 01:41:55;;;;;;;9.97;4.77;;;;;;;;;;4896687;29;20185;-84
2024/02/10 01:45:00;;;;;;;9.80;4.50;;;;;;;;;;4896096;29;20214;-84
2024/02/10 01:48:08;;;;;;;11.70;4.90;;;;;;;;;;4896755;29;20226;-84
2024/02/10 01:51:14;;;;;;;9.93;5.13;;;;;;;;;;4896194;29;20529;-84
2024/02/10 01:54:18;;;;;;;8.83;5.33;;;;;;;;;;4897360;29;20178;-83
2024/02/10 01:57:22;;;;;;;11.57;4.40;;;;;;;;;;4953364;28;20190;-83
2024/02/10 02:00:26;;;;;;;9.27;4.80;;;;;;;;;;4897297;29;20185;-83
2024/02/10 02:03:31;;;;;;;11.13;5.63;;;;;;;;;;4896569;29;20528;-82
2024/02/10 02:06:35;;;;;;;12.20;4.97;;;;;;;;;;4896525;29;20186;-83
2024/02/10 02:09:39;;;;;;;10.60;4.80;;;;;;;;;;4896784;29;20288;-82
2024/02/10 02:12:48;;;;;;;8.50;4.80;;;;;;;;;;4941632;28;20260;-82
2024/02/10 02:15:57;;;;;;;12.30;4.93;;;;;;;;;;4896701;29;20181;-82
2024/02/10 02:19:02;;;;;;;8.27;4.10;;;;;;;;;;4888258;29;20575;-82
2024/02/10 02:22:09;;;;;;;11.30;4.57;;;;;;;;;;4887932;29;20189;-82
2024/02/10 02:25:13;;;;;;;11.27;5.43;;;;;;;;;;4898766;29;20213;-83
2024/02/10 02:28:18;;;;;;;11.60;4.97;;;;;;;;;;4899332;29;20229;-83
2024/02/10 02:31:22;;;;;;;12.13;5.70;;;;;;;;;;4910224;29;20182;-83
2024/02/10 02:34:26;;;;;;;12.23;6.10;;;;;;;;;;4888844;29;20190;-83
2024/02/10 02:37:32;;;;;;;10.87;6.30;;;;;;;;;;4888475;29;20186;-82
2024/02/10 02:40:37;;;;;;;10.13;6.40;;;;;;;;;;4898724;29;20639;-83
2024/02/10 02:43:41;;;;;;;15.87;5.83;;;;;;;;;;4944716;28;20190;-82
2024/02/10 02:46:45;;;;;;;12.53;6.07;;;;;;;;;;4888101;29;20182;-83
2024/02/10 02:49:50;;;;;;;10.43;5.43;;;;;;;;;;4888411;29;20185;-83
2024/02/10 02:52:57;;;;;;;12.43;4.87;;;;;;;;;;4899581;29;20190;-82
2024/02/10 02:56:03;;;;;;;12.47;6.00;;;;;;;;;;4899307;29;20181;-83
2024/02/10 02:59:07;;;;;;;14.40;5.67;;;;;;;;;;4899517;29;20564;-83
2024/02/10 03:02:11;;;;;;;12.33;5.60;;;;;;;;;;4902448;29;20186;-83
2024/02/10 03:05:17;;;;;;;12.03;6.77;;;;;;;;;;4901984;29;20221;-84
2024/02/10 03:08:22;;;;;;;15.33;6.90;;;;;;;;;;4900596;29;20217;-84
2024/02/10 03:11:28;;;;;;;14.13;6.87;;;;;;;;;;4900000;29;20186;-83
2024/02/10 03:14:32;;;;;;;14.83;7.17;;;;;;;;;;4909927;29;20178;-84
2024/02/10 03:17:36;;;;;;;14.67;6.40;;;;;;;;;;4899121;29;20193;-84
2024/02/10 03:20:40;;;;;;;12.70;7.10;;;;;;;;;;4909435;29;20209;-84
2024/02/10 03:23:44;;;;;;;13.63;7.47;;;;;;;;;;4899828;29;20528;-84
2024/02/10 03:26:50;;;;;;;16.37;7.60;;;;;;;;;;4943585;28;20178;-84
2024/02/10 03:29:54;;;;;;;13.07;6.03;;;;;;;;;;4899152;29;20177;-84
2024/02/10 03:33:01;;;;;;;13.17;6.87;;;;;;;;;;4901195;29;20186;-84
2024/02/10 03:36:05;;;;;;;13.13;6.50;;;;;;;;;;4901124;29;20182;-84
2024/02/10 03:39:09;;;;;;;9.33;6.70;;;;;;;;;;4901381;29;20221;-84
2024/02/10 03:42:14;;;;;;;14.57;6.93;;;;;;;;;;4897811;29;20186;-84
2024/02/10 03:45:18;;;;;;;10.43;6.53;;;;;;;;;;4898844;29;20213;-84
2024/02/10 03:48:22;;;;;;;12.83;6.57;;;;;;;;;;4943036;28;20567;-84
2024/02/10 03:51:28;;;;;;;12.70;6.17;;;;;;;;;;4944459;28;20190;-84
2024/02/10 03:54:32;;;;;;;9.37;6.00;;;;;;;;;;4889097;29;20194;-84
2024/02/10 03:57:37;;;;;;;10.20;5.90;;;;;;;;;;4899812;29;20193;-84
2024/02/10 04:00:43;;;;;;;11.77;6.17;;;;;;;;;;4910084;29;20190;-84
2024/02/10 04:03:47;;;;;;;12.97;6.73;;;;;;;;;;4899573;29;20181;-84
2024/02/10 04:06:51;;;;;;;12.50;7.03;;;;;;;;;;4899614;29;20639;-84
2024/02/10 04:09:55;;;;;;;15.23;7.23;;;;;;;;;;4901739;29;20185;-84
2024/02/10 04:13:06;;;;;;;9.90;6.67;;;;;;;;;;4944704;28;20182;-83
2024/02/10 04:16:13;;;;;;;12.30;6.70;;;;;;;;;;4898402;29;20627;-84
2024/02/10 04:19:17;;;;;;;10.23;6.07;;;;;;;;;;4897921;29;20225;-84
2024/02/10 04:22:23;;;;;;;10.87;6.40;;;;;;;;;;4899030;29;20193;-83
2024/02/10 04:25:31;;;;;;;10.47;5.97;;;;;;;;;;4896270;29;20225;-83
2024/02/10 04:28:35;;;;;;;13.37;6.47;;;;;;;;;;4896011;29;20221;-83
2024/02/10 04:31:40;;;;;;;8.60;6.17;;;;;;;;;;4911288;29;20182;-84
2024/02/10 04:34:45;;;;;;;11.57;6.50;;;;;;;;;;4899803;29;20190;-84
2024/02/10 04:37:53;;;;;;;14.20;6.53;;;;;;;;;;4899306;29;20221;-83
2024/02/10 04:41:04;;;;;;;9.63;5.90;;;;;;;;;;4888473;29;20186;-84
2024/02/10 04:44:08;;;;;;;10.60;6.23;;;;;;;;;;4908984;29;20200;-85
2024/02/10 04:47:12;;;;;;;10.77;5.77;;;;;;;;;;4919177;29;20174;-85
2024/02/10 04:50:17;;;;;;;15.13;6.97;;;;;;;;;;4919093;29;20190;-84
2024/02/10 04:53:25;;;;;;;11.73;5.77;;;;;;;;;;4963704;28;20182;-85
2024/02/10 04:56:33;;;;;;;10.60;6.13;;;;;;;;;;4905902;29;20185;-84
2024/02/10 04:59:38;;;;;;;12.20;6.07;;;;;;;;;;4905434;29;20221;-84
2024/02/10 05:02:44;;;;;;;8.70;5.70;;;;;;;;;;4905996;29;20186;-85
2024/02/10 05:05:50;;;;;;;13.17;6.73;;;;;;;;;;4910051;29;20210;-85
2024/02/10 05:08:54;;;;;;;12.67;6.03;;;;;;;;;;4909561;29;20217;-84
2024/02/10 05:11:58;;;;;;;11.27;6.00;;;;;;;;;;4911136;29;20185;-84
2024/02/10 05:15:04;;;;;;;14.00;6.97;;;;;;;;;;4906278;29;20186;-84
2024/02/10 05:18:08;;;;;;;15.33;6.87;;;;;;;;;;4907767;29;20225;-84
2024/02/10 05:21:18;;;;;;;13.33;7.27;;;;;;;;;;4911160;29;20181;-84
2024/02/10 05:24:24;;;;;;;16.33;7.33;;;;;;;;;;4908777;29;20178;-84
2024/02/10 05:27:30;;;;;;;13.87;7.50;;;;;;;;;;4905756;29;20186;-84
2024/02/10 05:30:34;;;;;;;13.13;7.73;;;;;;;;;;4951744;28;20185;-84
2024/02/10 05:33:42;;;;;;;16.13;7.90;;;;;;;;;;4915934;29;20193;-84
2024/02/10 05:36:46;;;;;;;13.93;7.67;;;;;;;;;;4894788;29;20178;-84
2024/02/10 05:39:50;;;;;;;13.83;7.63;;;;;;;;;;4905479;29;20186;-84
2024/02/10 05:43:04;;;;;;;10.60;7.40;;;;;;;;;;4907985;29;20189;-84
2024/02/10 05:46:09;;;;;;;12.10;7.70;;;;;;;;;;4907693;29;20213;-84
2024/02/10 05:49:13;;;;;;;14.57;7.87;;;;;;;;;;4907442;29;20229;-84
2024/02/10 05:52:20;;;;;;;13.23;7.23;;;;;;;;;;4897972;29;20189;-84
2024/02/10 05:55:26;;;;;;;11.87;7.50;;;;;;;;;;4911007;29;20182;-85
2024/02/10 05:58:31;;;;;;;17.43;7.53;;;;;;;;;;4910153;29;20221;-84
2024/02/10 06:01:38;;;;;;;13.30;7.53;;;;;;;;;;4910915;29;20627;-84
2024/02/10 06:04:42;;;;;;;11.67;7.10;;;;;;;;;;4910209;29;20647;-84
2024/02/10 06:07:48;;;;;;;14.13;7.17;;;;;;;;;;4909873;29;20213;-84
2024/02/10 06:10:53;;;;;;;11.67;6.90;;;;;;;;;;4910243;29;20190;-84
2024/02/10 06:13:57;;;;;;;10.37;7.00;;;;;;;;;;4910557;29;20190;-84
2024/02/10 06:17:01;;;;;;;11.20;6.67;;;;;;;;;;4909535;29;20632;-84
2024/02/10 06:20:17;;;;;;;13.60;7.23;;;;;;;;;;4911292;29;20213;-84
2024/02/10 06:23:25;;;;;;;11.80;7.80;;;;;;;;;;4910123;29;20186;-83
2024/02/10 06:26:30;;;;;;;9.60;6.73;;;;;;;;;;4954484;28;20214;-83
2024/02/10 06:29:34;;;;;;;12.90;6.87;;;;;;;;;;4906457;29;20698;-83
2024/02/10 06:32:39;;;;;;;12.80;6.53;;;;;;;;;;4905028;29;20186;-83
2024/02/10 06:35:44;;;;;;;11.83;6.93;;;;;;;;;;4905012;29;20186;-83
2024/02/10 06:38:48;;;;;;;16.27;7.50;;;;;;;;;;4906550;29;20221;-83
2024/02/10 06:41:52;;;;;;;13.77;6.80;;;;;;;;;;4906044;29;20636;-83
2024/02/10 06:44:59;;;;;;;15.00;8.03;;;;;;;;;;4895015;29;20189;-83
2024/02/10 06:48:05;;;;;;;13.23;6.90;;;;;;;;;;4905570;29;20214;-82
2024/02/10 06:51:11;;;;;;;12.67;7.80;;;;;;;;;;4905553;29;20178;-84
2024/02/10 06:54:15;;;;;;;15.40;7.53;;;;;;;;;;4907279;29;20178;-83
2024/02/10 06:57:20;;;;;;;12.57;7.67;;;;;;;;;;4905705;29;20181;-84
2024/02/10 07:00:24;;;;;;;13.57;7.10;;;;;;;;;;4893221;29;20186;-84
2024/02/10 07:03:31;;;;;;;13.67;6.87;;;;;;;;;;4962890;28;20182;-85
2024/02/10 07:06:36;;;;;;;10.63;6.43;;;;;;;;;;4905345;29;20217;-85
2024/02/10 07:09:40;;;;;;;10.37;6.67;;;;;;;;;;4892434;29;20225;-84
2024/02/10 07:12:49;;;;;;;11.57;7.30;;;;;;;;;;4913148;29;20189;-83
2024/02/10 07:15:54;;;;;;;12.70;8.23;;;;;;;;;;4901671;29;20185;-85
2024/02/10 07:18:59;;;;;;;14.80;8.40;;;;;;;;;;4911756;29;20591;-85
2024/02/10 07:22:03;;;;;;;12.73;7.43;;;;;;;;;;4901670;29;20190;-85
2024/02/10 07:25:11;;;;;;;11.50;7.13;;;;;;;;;;4900201;29;20190;-85
2024/02/10 07:28:19;;;;;;;11.90;7.13;;;;;;;;;;4901228;29;20221;-85
2024/02/10 07:31:24;;;;;;;13.33;7.53;;;;;;;;;;4902067;29;20186;-85
2024/02/10 07:34:29;;;;;;;10.33;6.87;;;;;;;;;;4901769;29;20642;-84
2024/02/10 07:37:33;;;;;;;10.83;6.93;;;;;;;;;;4902483;29;20182;-84
2024/02/10 07:40:37;;;;;;;12.27;7.60;;;;;;;;;;4902686;29;20193;-84
2024/02/10 07:43:41;;;;;;;12.30;7.50;;;;;;;;;;4891617;29;20186;-85
2024/02/10 07:46:45;;;;;;;11.80;7.73;;;;;;;;;;4913385;29;20213;-84
2024/02/10 07:49:53;;;;;;;14.20;7.77;;;;;;;;;;4958530;28;20177;-85
2024/02/10 07:52:57;;;;;;;13.60;7.87;;;;;;;;;;4901331;29;20189;-86
2024/02/10 07:56:01;;;;;;;15.17;8.27;;;;;;;;;;4902750;29;20186;-84
2024/02/10 07:59:05;;;;;;;14.90;8.27;;;;;;;;;;4901839;29;20574;-84
2024/02/10 08:02:16;;;;;;;13.07;7.93;;;;;;;;;;4890443;29;20190;-84
2024/02/10 08:05:20;;;;;;;10.90;7.10;;;;;;;;;;4890522;29;20181;-84
2024/02/10 08:08:26;;;;;;;10.97;7.03;;;;;;;;;;4911054;29;20213;-85
2024/02/10 08:11:30;;;;;;;11.20;6.83;;;;;;;;;;4912345;29;20647;-84
2024/02/10 08:14:36;;;;;;;11.80;7.70;;;;;;;;;;4946102;28;20528;-85
2024/02/10 08:17:40;;;;;;;11.53;7.37;;;;;;;;;;4911493;29;20181;-84
2024/02/10 08:20:44;;;;;;;12.17;7.70;;;;;;;;;;4956773;28;20185;-84
2024/02/10 08:23:52;;;;;;;10.60;7.40;;;;;;;;;;4899803;29;20185;-84
2024/02/10 08:26:56;;;;;;;18.50;10.93;;;;;;;;;;4899610;29;20213;-84
2024/02/10 08:30:04;;;;;;;62.60;41.47;;;;;;;;;;4899052;29;20190;-83
2024/02/10 08:33:09;;;;;;;50.40;30.40;;;;;;;;;;4888375;29;20182;-86
2024/02/10 08:36:15;;;;;;;54.37;32.30;;;;;;;;;;4898026;29;20182;-86
2024/02/10 08:39:19;;;;;;;82.87;42.80;;;;;;;;;;4954189;28;20702;-84
2024/02/10 08:42:24;;;;;;;94.40;53.80;;;;;;;;;;4898659;29;20710;-85
2024/02/10 08:45:30;;;;;;;56.77;32.60;;;;;;;;;;4898116;29;20525;-87
2024/02/10 08:48:34;;;;;;;21.67;14.77;;;;;;;;;;4907241;29;20721;-86
2024/02/10 08:51:38;;;;;;;15.17;8.90;;;;;;;;;;4897734;29;20651;-86
2024/02/10 08:54:43;;;;;;;15.03;8.30;;;;;;;;;;4887149;29;20182;-86
2024/02/10 08:57:49;;;;;;;14.90;8.27;;;;;;;;;;4897449;29;20213;-86
2024/02/10 09:00:57;;;;;;;16.03;8.50;;;;;;;;;;4897640;29;20182;-86
2024/02/10 09:04:02;;;;;;;13.27;8.57;;;;;;;;;;4954709;28;20185;-87
2024/02/10 09:07:07;;;;;;;13.27;8.13;;;;;;;;;;4897784;29;20213;-87
2024/02/10 09:10:13;;;;;;;13.03;8.93;;;;;;;;;;4887077;29;20177;-87
2024/02/10 09:13:19;;;;;;;13.13;9.40;;;;;;;;;;4886595;29;20197;-87
2024/02/10 09:16:26;;;;;;;15.80;9.73;;;;;;;;;;4897459;29;20181;-87
2024/02/10 09:19:35;;;;;;;15.20;9.37;;;;;;;;;;4898057;29;20225;-88
2024/02/10 09:22:40;;;;;;;13.43;8.80;;;;;;;;;;4886810;29;20198;-87
2024/02/10 09:25:44;;;;;;;15.67;9.17;;;;;;;;;;4897295;29;20185;-86
2024/02/10 09:28:48;;;;;;;13.33;7.50;;;;;;;;;;4902861;29;20567;-88
2024/02/10 09:31:52;;;;;;;15.30;8.17;;;;;;;;;;4946648;28;20182;-87
2024/02/10 09:34:57;;;;;;;13.40;8.70;;;;;;;;;;4900590;29;20185;-87
2024/02/10 09:38:01;;;;;;;15.07;8.40;;;;;;;;;;4900650;29;20217;-87
2024/02/10 09:41:08;;;;;;;11.37;7.40;;;;;;;;;;4889320;29;20181;-87
2024/02/10 09:44:16;;;;;;;16.80;8.00;;;;;;;;;;4900523;29;20182;-87
2024/02/10 09:47:23;;;;;;;10.70;6.90;;;;;;;;;;4911423;29;20659;-87
2024/02/10 09:50:31;;;;;;;15.07;8.37;;;;;;;;;;4900880;29;20185;-87
2024/02/10 09:53:35;;;;;;;13.40;7.63;;;;;;;;;;4890046;29;20182;-86
2024/02/10 09:56:40;;;;;;;12.97;7.90;;;;;;;;;;4911416;29;20182;-88
2024/02/10 09:59:45;;;;;;;11.40;7.70;;;;;;;;;;4901538;29;20229;-87
2024/02/10 10:02:50;;;;;;;12.90;8.23;;;;;;;;;;4900433;29;20556;-88
2024/02/10 10:05:55;;;;;;;11.67;7.70;;;;;;;;;;4899806;29;20536;-87
2024/02/10 10:08:59;;;;;;;14.17;7.83;;;;;;;;;;4899663;29;20702;-88
2024/02/10 10:12:09;;;;;;;13.23;7.70;;;;;;;;;;4919710;29;20193;-88
2024/02/10 10:15:19;;;;;;;15.13;8.70;;;;;;;;;;4918407;29;20189;-87
2024/02/10 10:18:24;;;;;;;14.80;9.90;;;;;;;;;;4907046;29;20213;-87
2024/02/10 10:21:30;;;;;;;14.17;8.20;;;;;;;;;;4923381;29;20192;-86
2024/02/10 10:24:37;;;;;;;19.63;13.20;;;;;;;;;;4919361;29;20185;-86
2024/02/10 10:27:41;;;;;;;17.70;11.93;;;;;;;;;;4908066;29;20217;-87
2024/02/10 10:30:47;;;;;;;17.90;12.23;;;;;;;;;;4930710;29;20189;-87
2024/02/10 10:33:54;;;;;;;13.70;8.87;;;;;;;;;;4911324;29;20190;-87
2024/02/10 10:37:01;;;;;;;13.27;9.60;;;;;;;;;;4908869;29;20186;-88
2024/02/10 10:40:10;;;;;;;13.17;8.67;;;;;;;;;;4919156;29;20185;-88
2024/02/10 10:43:17;;;;;;;14.70;8.63;;;;;;;;;;4919383;29;20186;-87
2024/02/10 10:46:23;;;;;;;12.17;8.03;;;;;;;;;;4920418;29;20185;-88
2024/02/10 10:49:27;;;;;;;12.50;7.63;;;;;;;;;;4919949;29;20229;-88
2024/02/10 10:52:33;;;;;;;10.53;7.17;;;;;;;;;;4919998;29;20185;-88
2024/02/10 10:55:48;;;;;;;12.33;7.07;;;;;;;;;;4919388;29;20193;-86
2024/02/10 10:58:57;;;;;;;10.03;6.70;;;;;;;;;;4929342;29;20721;-86
2024/02/10 11:02:04;;;;;;;11.17;6.73;;;;;;;;;;4919156;29;20186;-87
2024/02/10 11:05:11;;;;;;;14.70;6.90;;;;;;;;;;4919274;29;20189;-86
2024/02/10 11:08:25;;;;;;;11.70;7.27;;;;;;;;;;4930171;29;20702;-86
2024/02/10 11:11:37;;;;;;;9.67;6.20;;;;;;;;;;4919801;29;20181;-86
2024/02/10 11:14:53;;;;;;;10.47;6.10;;;;;;;;;;4919588;29;20185;-87
2024/02/10 11:18:00;;;;;;;10.90;5.57;;;;;;;;;;4909087;29;20208;-86
2024/02/10 11:21:08;;;;;;;7.80;5.40;;;;;;;;;;4930650;29;20181;-85
2024/02/10 11:24:16;;;;;;;7.93;5.00;;;;;;;;;;4930257;29;20642;-87
2024/02/10 11:27:24;;;;;;;8.57;5.10;;;;;;;;;;4909361;29;20559;-86
2024/02/10 11:30:34;;;;;;;6.47;5.20;;;;;;;;;;4930637;29;20219;-85
2024/02/10 11:33:38;;;;;;;5.60;4.13;;;;;;;;;;4919537;29;20181;-86
2024/02/10 11:36:50;;;;;;;8.33;4.73;;;;;;;;;;4919035;29;20184;-86
2024/02/10 11:39:55;;;;;;;6.70;4.13;;;;;;;;;;4929404;29;20181;-86
2024/02/10 11:43:01;;;;;;;6.53;4.30;;;;;;;;;;4919187;29;20519;-86
2024/02/10 11:46:08;;;;;;;5.30;4.37;;;;;;;;;;4919176;29;20185;-86
2024/02/10 11:49:12;;;;;;;4.00;3.53;;;;;;;;;;4918538;29;20209;-85
2024/02/10 11:52:17;;;;;;;8.83;4.40;;;;;;;;;;4919281;29;20185;-85
2024/02/10 11:55:21;;;;;;;5.57;4.00;;;;;;;;;;4918753;29;20181;-86
2024/02/10 11:58:29;;;;;;;8.67;4.40;;;;;;;;;;4929320;29;20567;-85
2024/02/10 12:01:36;;;;;;;5.60;3.87;;;;;;;;;;4918738;29;20182;-86
2024/02/10 12:04:43;;;;;;;8.83;4.53;;;;;;;;;;4929617;29;20189;-86
2024/02/10 12:07:49;;;;;;;7.57;4.43;;;;;;;;;;4929575;29;20232;-85
2024/02/10 12:10:53;;;;;;;8.23;4.10;;;;;;;;;;4921072;29;20189;-85
2024/02/10 12:13:57;;;;;;;7.47;3.90;;;;;;;;;;4918551;29;20181;-86
2024/02/10 12:17:08;;;;;;;6.17;4.17;;;;;;;;;;4918243;29;20190;-86
2024/02/10 12:20:16;;;;;;;6.13;3.73;;;;;;;;;;4919460;29;20204;-86
2024/02/10 12:23:26;;;;;;;7.77;3.83;;;;;;;;;;4917932;29;20185;-85
2024/02/10 12:26:30;;;;;;;6.23;3.73;;;;;;;;;;4917870;29;20189;-86
2024/02/10 12:29:40;;;;;;;5.67;3.63;;;;;;;;;;4918090;29;20209;-86
2024/02/10 12:32:45;;;;;;;4.87;3.50;;;;;;;;;;4917010;29;20185;-85
2024/02/10 12:35:53;;;;;;;6.13;3.27;;;;;;;;;;4917863;29;20194;-86
2024/02/10 12:38:58;;;;;;;7.63;3.80;;;;;;;;;;4916932;29;20221;-87
2024/02/10 12:42:04;;;;;;;5.00;3.27;;;;;;;;;;4928077;28;20299;-88
2024/02/10 12:45:13;;;;;;;7.47;3.83;;;;;;;;;;4916355;29;20764;-88
2024/02/10 12:48:18;;;;;;;5.40;3.60;;;;;;;;;;4916329;29;20232;-87
2024/02/10 12:51:24;;;;;;;6.90;3.60;;;;;;;;;;4916575;29;20185;-87
2024/02/10 12:54:28;;;;;;;8.30;3.70;;;;;;;;;;4905378;29;20532;-87
2024/02/10 12:57:32;;;;;;;8.03;3.80;;;;;;;;;;4905923;29;20523;-87
2024/02/10 13:00:38;;;;;;;5.57;3.53;;;;;;;;;;4916490;29;20181;-87
2024/02/10 13:03:43;;;;;;;5.00;3.33;;;;;;;;;;4926658;29;20181;-85
2024/02/10 13:06:47;;;;;;;5.57;3.70;;;;;;;;;;4916590;29;20188;-86
2024/02/10 13:09:51;;;;;;;7.20;3.50;;;;;;;;;;4917047;29;20177;-86
2024/02/10 13:12:56;;;;;;;6.67;3.83;;;;;;;;;;4916438;29;20185;-86
2024/02/10 13:16:01;;;;;;;5.20;3.77;;;;;;;;;;4917367;29;20185;-86
2024/02/10 13:19:06;;;;;;;5.47;3.73;;;;;;;;;;4916718;29;20240;-86
2024/02/10 13:22:11;;;;;;;5.70;4.13;;;;;;;;;;4916692;29;20184;-85
2024/02/10 13:25:16;;;;;;;5.43;4.20;;;;;;;;;;4917375;29;20189;-86
2024/02/10 13:28:20;;;;;;;6.13;4.43;;;;;;;;;;4916379;29;20232;-84
2024/02/10 13:31:26;;;;;;;5.60;4.00;;;;;;;;;;4916223;29;20184;-83
2024/02/10 13:34:31;;;;;;;4.63;3.80;;;;;;;;;;4916505;29;20185;-83
2024/02/10 14:01:17;;;;;;;5.00;4.03;;;;;;;;;;4904821;29;20189;-85
2024/02/10 14:04:33;;;;;;;8.77;4.17;;;;;;;;;;4915877;29;20193;-85
2024/02/10 14:14:14;;;;;;;7.63;4.27;;;;;;;;;;4932276;28;20196;-86
2024/02/10 14:17:19;;;;;;;5.77;3.97;;;;;;;;;;4918707;29;20193;-85
2024/02/10 14:20:26;;;;;;;6.67;4.00;;;;;;;;;;4918640;29;20204;-85
2024/02/10 14:23:31;;;;;;;6.30;4.40;;;;;;;;;;4919509;29;20545;-85
2024/02/10 14:26:40;;;;;;;9.10;4.00;;;;;;;;;;4919237;29;20190;-85
2024/02/10 14:29:44;;;;;;;6.97;4.33;;;;;;;;;;4918480;29;20694;-85
2024/02/10 14:32:51;;;;;;;6.17;4.23;;;;;;;;;;4918206;29;20181;-85
2024/02/10 14:36:09;;;;;;;5.90;3.83;;;;;;;;;;4918476;29;20193;-85
2024/02/10 14:39:14;;;;;;;5.87;4.20;;;;;;;;;;4918273;29;20236;-85
2024/02/10 14:42:19;;;;;;;6.47;4.43;;;;;;;;;;4917932;29;20185;-85
2024/02/10 14:45:23;;;;;;;5.23;4.23;;;;;;;;;;4907106;29;20642;-86
2024/02/10 14:48:30;;;;;;;7.97;4.33;;;;;;;;;;4919658;29;20225;-86
2024/02/10 14:51:35;;;;;;;6.57;4.57;;;;;;;;;;4918561;29;20193;-86
2024/02/10 14:54:42;;;;;;;4.90;3.67;;;;;;;;;;4917846;29;20634;-86
2024/02/10 14:57:46;;;;;;;10.73;4.37;;;;;;;;;;4917871;29;20221;-86
2024/02/10 15:00:54;;;;;;;8.27;4.07;;;;;;;;;;4917837;29;20189;-86
2024/02/10 15:04:00;;;;;;;5.57;3.47;;;;;;;;;;4907046;29;20181;-85
2024/02/10 15:07:04;;;;;;;5.67;3.83;;;;;;;;;;4927904;29;20531;-84
2024/02/10 15:10:08;;;;;;;5.57;3.97;;;;;;;;;;4918213;29;20177;-85
2024/02/10 15:13:12;;;;;;;5.33;3.60;;;;;;;;;;4918320;29;20185;-85
2024/02/10 15:16:18;;;;;;;7.03;4.00;;;;;;;;;;4917712;29;20185;-84
2024/02/10 15:19:22;;;;;;;6.10;3.87;;;;;;;;;;4917373;29;20701;-85
2024/02/10 15:22:26;;;;;;;7.00;3.97;;;;;;;;;;4918107;29;20185;-85
2024/02/10 15:25:32;;;;;;;6.83;3.73;;;;;;;;;;4915894;29;20185;-85
2024/02/10 15:28:36;;;;;;;6.23;3.40;;;;;;;;;;4916984;29;20232;-85
2024/02/10 15:31:40;;;;;;;4.70;3.63;;;;;;;;;;4927959;29;20193;-85
2024/02/10 15:34:47;;;;;;;6.37;3.80;;;;;;;;;;4917665;29;20189;-85
2024/02/10 15:37:51;;;;;;;6.70;4.47;;;;;;;;;;4917573;29;20220;-84
2024/02/10 15:40:57;;;;;;;5.13;3.90;;;;;;;;;;4917054;29;20193;-85
2024/02/10 15:44:06;;;;;;;5.60;3.50;;;;;;;;;;4917987;29;20193;-85
2024/02/10 15:47:10;;;;;;;6.80;4.03;;;;;;;;;;4917715;29;20527;-85
2024/02/10 15:50:13;;;;;;;5.67;4.17;;;;;;;;;;4927923;29;20216;-85
2024/02/10 15:53:21;;;;;;;5.63;3.83;;;;;;;;;;4928141;29;20555;-85
2024/02/10 15:56:26;;;;;;;7.00;4.20;;;;;;;;;;4918140;29;20190;-85
2024/02/10 15:59:32;;;;;;;6.60;4.23;;;;;;;;;;4927691;29;20221;-85
2024/02/10 16:02:36;;;;;;;6.20;4.10;;;;;;;;;;4917880;29;20181;-85
2024/02/10 16:05:41;;;;;;;5.87;3.97;;;;;;;;;;4918178;29;20189;-85
2024/02/10 16:08:47;;;;;;;9.03;4.50;;;;;;;;;;4918469;29;20225;-85
2024/02/10 16:11:51;;;;;;;7.33;4.37;;;;;;;;;;4927118;29;20185;-85
2024/02/10 16:14:55;;;;;;;5.37;4.20;;;;;;;;;;4916978;29;20193;-85
2024/02/10 16:17:59;;;;;;;8.20;4.43;;;;;;;;;;4916708;29;20224;-85
2024/02/10 16:21:17;;;;;;;6.83;4.33;;;;;;;;;;4917067;29;20209;-85
2024/02/10 16:24:22;;;;;;;6.47;4.07;;;;;;;;;;4916414;29;20185;-85
2024/02/10 16:27:29;;;;;;;5.87;4.27;;;;;;;;;;4916169;29;20189;-85
2024/02/10 16:30:34;;;;;;;5.50;4.20;;;;;;;;;;4927405;29;20492;-85
2024/02/10 16:33:38;;;;;;;6.87;4.20;;;;;;;;;;4917295;29;20189;-85
2024/02/10 16:36:44;;;;;;;8.10;4.30;;;;;;;;;;4927658;29;20185;-85
2024/02/10 16:39:50;;;;;;;6.23;4.13;;;;;;;;;;4917263;29;20560;-85
2024/02/10 16:42:56;;;;;;;5.33;3.87;;;;;;;;;;4915645;29;20185;-85
2024/02/10 16:46:01;;;;;;;5.70;4.03;;;;;;;;;;4915925;29;20184;-85
2024/02/10 16:49:06;;;;;;;6.23;3.97;;;;;;;;;;4925827;29;20237;-85
2024/02/10 16:52:10;;;;;;;6.50;4.20;;;;;;;;;;4915609;29;20189;-85
2024/02/10 16:55:17;;;;;;;5.13;3.60;;;;;;;;;;4917075;29;20185;-85
2024/02/10 16:58:22;;;;;;;4.47;3.50;;;;;;;;;;4915811;29;20228;-85
2024/02/10 17:01:26;;;;;;;5.70;3.90;;;;;;;;;;4915658;29;20189;-85
2024/02/10 17:04:30;;;;;;;6.70;4.03;;;;;;;;;;4916185;29;20189;-85
2024/02/10 17:07:34;;;;;;;5.43;3.77;;;;;;;;;;4916977;29;20189;-85
2024/02/10 17:10:39;;;;;;;5.87;4.30;;;;;;;;;;4916555;29;20217;-86
2024/02/10 17:13:46;;;;;;;7.37;3.90;;;;;;;;;;4916440;29;20184;-85
2024/02/10 17:16:51;;;;;;;6.80;3.97;;;;;;;;;;4916162;29;20523;-85
2024/02/10 17:19:55;;;;;;;5.93;4.33;;;;;;;;;;4916516;29;20550;-85
2024/02/10 17:22:59;;;;;;;5.33;4.30;;;;;;;;;;4926358;29;20185;-84
2024/02/10 17:26:12;;;;;;;5.80;3.90;;;;;;;;;;4926710;29;20181;-85
2024/02/10 17:29:16;;;;;;;7.17;4.37;;;;;;;;;;4915339;29;20229;-85
2024/02/10 17:32:20;;;;;;;6.77;4.57;;;;;;;;;;4916154;29;20193;-85
2024/02/10 17:35:24;;;;;;;6.67;4.50;;;;;;;;;;4916411;29;20186;-85
2024/02/10 17:38:28;;;;;;;7.07;4.03;;;;;;;;;;4915625;29;20216;-86
2024/02/10 17:41:32;;;;;;;4.70;3.60;;;;;;;;;;4915436;29;20189;-85
2024/02/10 17:44:39;;;;;;;6.03;4.30;;;;;;;;;;4916814;29;20181;-85
2024/02/10 17:47:45;;;;;;;6.73;4.30;;;;;;;;;;4926419;29;20224;-84
2024/02/10 17:50:52;;;;;;;6.77;4.63;;;;;;;;;;4918644;29;20212;-84
2024/02/10 17:53:56;;;;;;;8.40;4.50;;;;;;;;;;4919983;29;20185;-84
2024/02/10 17:57:00;;;;;;;6.10;3.80;;;;;;;;;;4919821;29;20654;-85
2024/02/10 18:00:06;;;;;;;6.27;4.63;;;;;;;;;;4919075;29;20181;-85
2024/02/10 18:03:13;;;;;;;7.20;4.50;;;;;;;;;;4917855;29;20208;-85
2024/02/10 18:06:17;;;;;;;7.90;4.13;;;;;;;;;;4917760;29;20181;-85
2024/02/10 18:09:21;;;;;;;6.17;4.00;;;;;;;;;;4917791;29;20232;-85
2024/02/10 18:12:25;;;;;;;6.60;4.03;;;;;;;;;;4923666;29;20523;-86
2024/02/10 18:15:29;;;;;;;5.87;4.00;;;;;;;;;;4923292;29;20181;-86
2024/02/10 18:18:34;;;;;;;9.57;4.17;;;;;;;;;;4919487;29;20228;-85
2024/02/10 18:21:40;;;;;;;7.33;3.83;;;;;;;;;;4929269;29;20178;-85
2024/02/10 18:24:45;;;;;;;4.53;3.80;;;;;;;;;;4918474;29;20189;-85
2024/02/10 18:27:50;;;;;;;8.07;4.10;;;;;;;;;;4919017;29;20220;-84
2024/02/10 18:30:55;;;;;;;5.67;4.10;;;;;;;;;;4918340;29;20213;-85
2024/02/10 18:33:59;;;;;;;5.53;3.87;;;;;;;;;;4918123;29;20182;-85
2024/02/10 18:37:04;;;;;;;5.50;3.80;;;;;;;;;;4918005;29;20189;-85
2024/02/10 18:40:09;;;;;;;8.30;4.20;;;;;;;;;;4928918;29;20181;-85
2024/02/10 18:43:13;;;;;;;5.47;4.00;;;;;;;;;;4917967;29;20189;-85
2024/02/10 18:46:18;;;;;;;6.30;3.90;;;;;;;;;;4917806;29;20181;-85
2024/02/10 18:49:27;;;;;;;6.57;4.30;;;;;;;;;;4917857;29;20233;-85
2024/02/10 18:52:31;;;;;;;7.33;4.20;;;;;;;;;;4917566;29;20185;-85
2024/02/10 18:55:37;;;;;;;5.90;4.00;;;;;;;;;;4917274;29;20185;-85
2024/02/10 18:58:44;;;;;;;6.23;3.63;;;;;;;;;;4919014;29;20225;-85